createdAt,value
2022-11-06T00:01:14.412Z,19.8
2022-11-06T00:03:14.484Z,19.9
2022-11-06T00:05:14.426Z,19.9
2022-11-06T00:07:14.432Z,19.9
2022-11-06T00:09:14.455Z,19.8
2022-11-06T00:11:44.410Z,19.8
2022-11-06T00:13:44.388Z,19.9
2022-11-06T00:15:44.550Z,20.0
2022-11-06T00:17:44.413Z,20.1
2022-11-06T00:19:44.390Z,20.2
2022-11-06T00:21:44.431Z,20.6
2022-11-06T00:23:44.665Z,20.8
2022-11-06T00:25:44.390Z,20.6
2022-11-06T00:27:44.403Z,20.7
2022-11-06T00:29:44.401Z,20.9
2022-11-06T00:31:44.425Z,21.1
2022-11-06T00:33:44.405Z,21.1
2022-11-06T00:35:44.458Z,21.0
2022-11-06T00:37:44.405Z,20.9
2022-11-06T00:39:44.421Z,21.1
2022-11-06T00:41:44.452Z,21.1
2022-11-06T00:43:44.406Z,20.9
2022-11-06T00:45:44.411Z,21.0
2022-11-06T00:47:44.443Z,21.0
2022-11-06T00:49:44.415Z,21.1
2022-11-06T00:51:44.457Z,20.9
2022-11-06T00:53:44.425Z,21.1
2022-11-06T00:55:44.443Z,21.2
2022-11-06T00:57:44.526Z,20.8
2022-11-06T00:59:44.462Z,20.8
2022-11-06T01:01:44.502Z,20.8
2022-11-06T01:03:44.427Z,20.7
2022-11-06T01:05:44.416Z,20.7
2022-11-06T01:07:44.405Z,20.8
2022-11-06T01:09:44.498Z,20.8
2022-11-06T01:12:11.918Z,21.0
2022-11-06T01:13:44.571Z,20.7
2022-11-06T01:15:44.457Z,20.8
2022-11-06T01:17:44.411Z,20.9
2022-11-06T01:19:44.433Z,21.1
2022-11-06T01:21:44.454Z,20.8
2022-11-06T01:23:44.448Z,21.0
2022-11-06T01:25:44.462Z,21.2
2022-11-06T01:27:44.428Z,21.2
2022-11-06T01:29:44.482Z,21.2
2022-11-06T01:31:44.586Z,21.3
2022-11-06T01:33:44.473Z,21.0
2022-11-06T01:35:44.427Z,21.0
2022-11-06T01:37:44.472Z,20.8
2022-11-06T01:39:44.440Z,20.7
2022-11-06T01:41:44.521Z,20.5
2022-11-06T01:43:44.485Z,20.4
2022-11-06T01:45:44.434Z,20.3
2022-11-06T01:47:44.503Z,20.3
2022-11-06T01:49:44.453Z,20.1
2022-11-06T01:51:44.450Z,20.3
2022-11-06T01:53:44.490Z,20.5
2022-11-06T01:55:44.483Z,20.6
2022-11-06T01:57:44.493Z,20.9
2022-11-06T01:59:44.473Z,20.7
2022-11-06T02:01:44.629Z,20.7
2022-11-06T02:03:44.448Z,20.8
2022-11-06T02:06:14.502Z,20.8
2022-11-06T02:08:14.557Z,20.9
2022-11-06T02:10:14.513Z,20.8
2022-11-06T02:12:14.449Z,20.7
2022-11-06T02:14:14.475Z,20.8
2022-11-06T02:16:14.458Z,20.7
2022-11-06T02:18:14.913Z,20.5
2022-11-06T02:20:14.487Z,20.4
2022-11-06T02:22:14.501Z,20.0
2022-11-06T02:24:14.483Z,19.7
2022-11-06T02:26:14.479Z,19.6
2022-11-06T02:28:14.610Z,19.6
2022-11-06T02:30:14.463Z,19.5
2022-11-06T02:32:14.503Z,19.3
2022-11-06T02:34:14.504Z,19.6
2022-11-06T02:36:14.449Z,19.5
2022-11-06T02:38:14.844Z,19.8
2022-11-06T02:40:14.475Z,20.0
2022-11-06T02:42:14.497Z,20.1
2022-11-06T02:44:14.460Z,20.2
2022-11-06T02:46:14.514Z,20.4
2022-11-06T02:48:14.880Z,20.4
2022-11-06T02:50:14.528Z,20.4
2022-11-06T02:52:14.480Z,20.5
2022-11-06T02:54:14.522Z,20.2
2022-11-06T02:56:14.476Z,20.1
2022-11-06T02:58:14.799Z,20.0
2022-11-06T03:00:14.513Z,20.1
2022-11-06T03:02:14.550Z,20.0
2022-11-06T03:04:14.474Z,19.9
2022-11-06T03:06:14.526Z,20.1
2022-11-06T03:08:14.834Z,19.9
2022-11-06T03:10:14.810Z,20.1
2022-11-06T03:12:14.474Z,19.9
2022-11-06T03:14:14.526Z,20.1
2022-11-06T03:16:14.570Z,20.3
2022-11-06T03:18:14.868Z,20.4
2022-11-06T03:20:14.528Z,20.3
2022-11-06T03:22:14.526Z,20.4
2022-11-06T03:24:14.680Z,20.5
2022-11-06T03:26:14.524Z,20.8
2022-11-06T03:28:14.826Z,20.9
2022-11-06T03:30:16.708Z,20.8
2022-11-06T03:32:14.521Z,20.6
2022-11-06T03:34:14.521Z,20.6
2022-11-06T03:36:14.496Z,20.6
2022-11-06T03:38:14.728Z,20.3
2022-11-06T03:40:14.482Z,20.4
2022-11-06T03:42:17.568Z,20.6
2022-11-06T03:44:14.575Z,20.4
2022-11-06T03:46:14.543Z,20.5
2022-11-06T03:48:14.843Z,20.6
2022-11-06T03:50:14.553Z,20.7
2022-11-06T03:52:14.492Z,20.8
2022-11-06T03:54:14.608Z,20.9
2022-11-06T03:56:14.515Z,21.0
2022-11-06T03:58:14.761Z,21.0
2022-11-06T04:00:44.549Z,20.9
2022-11-06T04:02:44.676Z,21.0
2022-11-06T04:04:44.530Z,21.2
2022-11-06T04:06:44.615Z,20.9
2022-11-06T04:08:44.494Z,21.0
2022-11-06T04:10:44.505Z,20.7
2022-11-06T04:12:44.518Z,21.0
2022-11-06T04:14:44.509Z,20.9
2022-11-06T04:16:44.521Z,20.5
2022-11-06T04:18:44.523Z,20.2
2022-11-06T04:20:44.556Z,20.6
2022-11-06T04:22:44.509Z,20.5
2022-11-06T04:24:44.502Z,20.5
2022-11-06T04:26:44.557Z,20.4
2022-11-06T04:28:44.539Z,20.5
2022-11-06T04:30:44.528Z,21.0
2022-11-06T04:32:44.521Z,21.3
2022-11-06T04:34:44.537Z,21.0
2022-11-06T04:36:44.595Z,21.2
2022-11-06T04:38:44.513Z,21.3
2022-11-06T04:40:44.560Z,21.2
2022-11-06T04:42:44.551Z,20.9
2022-11-06T04:44:44.572Z,20.9
2022-11-06T04:46:44.576Z,20.7
2022-11-06T04:48:44.519Z,20.4
2022-11-06T04:50:44.580Z,20.3
2022-11-06T04:52:44.611Z,20.0
2022-11-06T04:54:44.539Z,20.1
2022-11-06T04:56:46.368Z,20.0
2022-11-06T04:58:44.522Z,20.0
2022-11-06T05:00:44.670Z,20.1
2022-11-06T05:02:44.548Z,20.2
2022-11-06T05:04:44.539Z,20.0
2022-11-06T05:06:44.529Z,20.1
2022-11-06T05:08:44.535Z,19.9
2022-11-06T05:10:44.585Z,20.0
2022-11-06T05:12:44.649Z,20.0
2022-11-06T05:14:44.582Z,19.9
2022-11-06T05:16:44.579Z,19.8
2022-11-06T05:18:44.564Z,20.2
2022-11-06T05:20:44.547Z,20.1
2022-11-06T05:22:44.546Z,20.3
2022-11-06T05:24:44.666Z,20.1
2022-11-06T05:26:44.529Z,20.3
2022-11-06T05:28:44.575Z,20.1
2022-11-06T05:30:44.584Z,19.8
2022-11-06T05:32:44.600Z,19.4
2022-11-06T05:34:44.544Z,19.7
2022-11-06T05:36:44.585Z,19.9
2022-11-06T05:38:44.551Z,20.1
2022-11-06T05:40:44.587Z,20.0
2022-11-06T05:42:44.639Z,20.2
2022-11-06T05:44:44.580Z,20.2
2022-11-06T05:46:49.366Z,20.2
2022-11-06T05:48:44.696Z,20.4
2022-11-06T05:50:44.554Z,20.5
2022-11-06T05:53:14.707Z,20.5
2022-11-06T05:55:15.302Z,20.6
2022-11-06T05:57:14.550Z,20.8
2022-11-06T05:59:14.632Z,20.8
2022-11-06T06:01:14.571Z,20.5
2022-11-06T06:03:14.663Z,20.6
2022-11-06T06:05:14.639Z,20.5
2022-11-06T06:07:14.578Z,20.9
2022-11-06T06:09:14.608Z,21.1
2022-11-06T06:11:14.618Z,21.2
2022-11-06T06:13:14.666Z,21.1
2022-11-06T06:15:14.895Z,21.3
2022-11-06T06:17:14.672Z,21.6
2022-11-06T06:19:14.619Z,21.5
2022-11-06T06:21:22.329Z,21.5
2022-11-06T06:23:14.657Z,21.1
2022-11-06T06:27:04.475Z,21.2
2022-11-06T06:29:04.546Z,21.1
2022-11-06T06:31:04.462Z,20.9
2022-11-06T06:33:04.492Z,20.9
2022-11-06T06:35:04.579Z,21.1
2022-11-06T06:37:04.470Z,20.8
2022-11-06T06:39:04.469Z,20.8
2022-11-06T06:41:04.475Z,20.7
2022-11-06T06:43:04.477Z,20.7
2022-11-06T06:45:04.649Z,20.7
2022-11-06T06:47:04.454Z,20.7
2022-11-06T06:49:04.591Z,20.8
2022-11-06T06:51:04.496Z,20.6
2022-11-06T06:53:04.511Z,20.6
2022-11-06T06:55:04.505Z,20.9
2022-11-06T06:57:04.512Z,20.8
2022-11-06T06:59:04.507Z,21.0
2022-11-06T07:01:04.695Z,21.1
2022-11-06T07:03:04.486Z,21.0
2022-11-06T07:05:04.628Z,21.0
2022-11-06T07:07:04.506Z,20.6
2022-11-06T07:09:34.589Z,20.8
2022-11-06T07:11:34.488Z,20.9
2022-11-06T07:13:36.196Z,21.0
2022-11-06T07:15:34.474Z,21.0
2022-11-06T07:17:34.519Z,20.9
2022-11-06T07:19:34.493Z,20.9
2022-11-06T07:21:34.517Z,20.7
2022-11-06T07:23:34.531Z,20.8
2022-11-06T07:25:34.485Z,20.7
2022-11-06T07:27:34.612Z,20.8
2022-11-06T07:29:34.541Z,21.0
2022-11-06T07:31:34.531Z,21.1
2022-11-06T07:33:34.550Z,21.1
2022-11-06T07:35:34.500Z,20.8
2022-11-06T07:37:34.499Z,20.5
2022-11-06T07:39:34.564Z,20.4
2022-11-06T07:41:34.495Z,20.7
2022-11-06T07:43:34.631Z,20.4
2022-11-06T07:45:35.490Z,20.1
2022-11-06T07:47:34.562Z,20.0
2022-11-06T07:49:34.522Z,19.9
2022-11-06T07:51:34.536Z,19.9
2022-11-06T07:53:34.530Z,19.8
2022-11-06T07:55:39.178Z,19.9
2022-11-06T07:57:34.605Z,20.0
2022-11-06T07:59:34.613Z,19.9
2022-11-06T08:01:34.746Z,19.9
2022-11-06T08:03:34.570Z,19.7
2022-11-06T08:05:34.553Z,19.9
2022-11-06T08:07:34.539Z,20.0
2022-11-06T08:09:34.576Z,19.9
2022-11-06T08:11:34.498Z,19.6
2022-11-06T08:13:34.540Z,19.6
2022-11-06T08:15:34.630Z,19.6
2022-11-06T08:17:34.618Z,19.7
2022-11-06T08:19:34.592Z,19.7
2022-11-06T08:21:34.566Z,19.8
2022-11-06T08:23:34.558Z,19.8
2022-11-06T08:25:34.566Z,19.9
2022-11-06T08:27:34.661Z,19.8
2022-11-06T08:29:39.885Z,20.0
2022-11-06T08:31:34.628Z,20.0
2022-11-06T08:33:34.586Z,20.0
2022-11-06T08:35:34.551Z,20.1
2022-11-06T08:37:34.567Z,20.4
2022-11-06T08:39:34.609Z,20.4
2022-11-06T08:41:34.548Z,20.3
2022-11-06T08:43:34.544Z,20.5
2022-11-06T08:45:34.567Z,20.8
2022-11-06T08:47:34.546Z,21.1
2022-11-06T08:49:34.529Z,21.4
2022-11-06T08:51:34.514Z,21.7
2022-11-06T08:53:34.637Z,21.7
2022-11-06T08:55:34.641Z,21.4
2022-11-06T08:57:34.620Z,21.1
2022-11-06T08:59:34.577Z,21.2
2022-11-06T09:01:34.693Z,21.4
2022-11-06T09:04:04.581Z,21.5
2022-11-06T09:06:04.561Z,21.4
2022-11-06T09:08:04.538Z,21.3
2022-11-06T09:10:04.588Z,21.2
2022-11-06T09:12:04.660Z,21.4
2022-11-06T09:14:04.549Z,21.3
2022-11-06T09:16:04.550Z,21.3
2022-11-06T09:18:04.660Z,21.3
2022-11-06T09:20:04.613Z,21.1
2022-11-06T09:22:04.628Z,20.8
2022-11-06T09:24:04.555Z,21.2
2022-11-06T09:26:04.546Z,21.2
2022-11-06T09:28:04.718Z,21.0
2022-11-06T09:30:04.576Z,21.0
2022-11-06T09:32:04.710Z,21.4
2022-11-06T09:34:04.619Z,21.7
2022-11-06T09:36:04.680Z,21.4
2022-11-06T09:38:04.688Z,21.4
2022-11-06T09:40:06.503Z,21.5
2022-11-06T09:42:04.717Z,21.6
2022-11-06T09:44:06.130Z,21.6
2022-11-06T09:46:04.749Z,21.4
2022-11-06T09:48:04.767Z,21.3
2022-11-06T09:50:04.591Z,20.7
2022-11-06T09:52:04.663Z,20.8
2022-11-06T09:54:04.685Z,21.2
2022-11-06T09:56:04.721Z,20.9
2022-11-06T09:58:04.735Z,20.8
2022-11-06T10:00:04.679Z,20.8
2022-11-06T10:02:04.825Z,20.8
2022-11-06T10:04:04.583Z,21.1
2022-11-06T10:06:04.691Z,21.3
2022-11-06T10:08:04.649Z,21.6
2022-11-06T10:10:04.660Z,21.6
2022-11-06T10:12:04.661Z,21.4
2022-11-06T10:14:04.683Z,21.7
2022-11-06T10:16:04.768Z,21.6
2022-11-06T10:18:04.778Z,21.5
2022-11-06T10:20:04.663Z,21.6
2022-11-06T10:22:04.755Z,21.6
2022-11-06T10:24:04.687Z,20.9
2022-11-06T10:26:04.646Z,20.8
2022-11-06T10:28:04.763Z,21.2
2022-11-06T10:30:04.595Z,21.0
2022-11-06T10:32:04.724Z,20.8
2022-11-06T10:34:04.631Z,20.6
2022-11-06T10:36:04.762Z,20.7
2022-11-06T10:38:04.610Z,20.8
2022-11-06T10:40:04.652Z,20.5
2022-11-06T10:42:04.753Z,20.4
2022-11-06T10:44:04.609Z,20.6
2022-11-06T10:46:04.777Z,21.1
2022-11-06T10:48:04.797Z,21.3
2022-11-06T10:50:04.656Z,21.7
2022-11-06T10:52:04.639Z,21.4
2022-11-06T10:54:04.651Z,20.8
2022-11-06T10:56:10.663Z,20.9
2022-11-06T10:58:04.696Z,20.8
2022-11-06T11:00:34.735Z,20.6
2022-11-06T11:02:34.856Z,20.7
2022-11-06T11:04:34.871Z,20.5
2022-11-06T11:06:34.758Z,20.4
2022-11-06T11:08:34.683Z,20.4
2022-11-06T11:10:34.695Z,20.3
2022-11-06T11:12:34.678Z,20.5
2022-11-06T11:14:34.730Z,20.1
2022-11-06T11:16:34.796Z,20.1
2022-11-06T11:18:35.254Z,20.2
2022-11-06T11:20:34.687Z,20.3
2022-11-06T11:22:34.664Z,20.1
2022-11-06T11:24:34.747Z,20.5
2022-11-06T11:26:34.694Z,20.7
2022-11-06T11:28:34.725Z,20.5
2022-11-06T11:30:34.770Z,20.5
2022-11-06T11:32:34.743Z,20.5
2022-11-06T11:34:34.692Z,20.5
2022-11-06T11:36:34.647Z,20.7
2022-11-06T11:38:34.722Z,20.5
2022-11-06T11:40:34.695Z,20.7
2022-11-06T11:42:35.885Z,20.9
2022-11-06T11:44:34.782Z,20.5
2022-11-06T11:46:34.727Z,20.6
2022-11-06T11:48:34.773Z,20.2
2022-11-06T11:50:34.687Z,20.1
2022-11-06T11:52:34.638Z,20.2
2022-11-06T11:54:34.699Z,20.6
2022-11-06T11:57:02.790Z,20.6
2022-11-06T11:58:34.770Z,20.5
2022-11-06T12:00:34.744Z,20.5
2022-11-06T12:02:34.822Z,20.3
2022-11-06T12:04:34.773Z,20.1
2022-11-06T12:06:34.811Z,20.1
2022-11-06T12:08:34.847Z,20.0
2022-11-06T12:10:34.709Z,20.0
2022-11-06T12:12:34.739Z,20.2
2022-11-06T12:14:34.789Z,20.3
2022-11-06T12:16:34.752Z,20.3
2022-11-06T12:18:34.808Z,20.3
2022-11-06T12:20:34.680Z,20.2
2022-11-06T12:22:34.750Z,20.6
2022-11-06T12:24:34.755Z,20.4
2022-11-06T12:26:34.729Z,20.3
2022-11-06T12:28:34.806Z,20.3
2022-11-06T12:30:34.767Z,20.2
2022-11-06T12:32:34.770Z,20.2
2022-11-06T12:34:34.827Z,20.2
2022-11-06T12:36:34.804Z,20.2
2022-11-06T12:38:34.830Z,20.2
2022-11-06T12:40:34.686Z,20.2
2022-11-06T12:42:34.722Z,20.1
2022-11-06T12:44:34.713Z,20.0
2022-11-06T12:46:34.732Z,19.5
2022-11-06T12:48:34.816Z,19.8
2022-11-06T12:50:34.741Z,19.8
2022-11-06T12:52:34.832Z,19.8
2022-11-06T12:55:05.116Z,20.0
2022-11-06T12:57:04.879Z,20.0
2022-11-06T12:59:05.292Z,19.8
2022-11-06T13:01:04.861Z,19.9
2022-11-06T13:03:04.776Z,20.3
2022-11-06T13:05:05.088Z,20.3
2022-11-06T13:07:04.795Z,20.4
2022-11-06T13:09:04.856Z,20.5
2022-11-06T13:11:04.781Z,20.3
2022-11-06T13:13:04.763Z,20.4
2022-11-06T13:15:04.873Z,20.3
2022-11-06T13:17:04.796Z,20.3
2022-11-06T13:19:04.760Z,20.5
2022-11-06T13:21:05.263Z,20.6
2022-11-06T13:23:05.150Z,20.6
2022-11-06T13:25:04.836Z,21.0
2022-11-06T13:27:05.003Z,20.9
2022-11-06T13:30:50.280Z,21.1
2022-11-06T13:32:53.794Z,20.8
2022-11-06T13:34:50.295Z,20.8
2022-11-06T13:36:50.259Z,20.8
2022-11-06T13:38:50.297Z,20.8
2022-11-06T13:40:50.212Z,20.6
2022-11-06T13:42:50.352Z,20.6
2022-11-06T13:44:50.289Z,20.8
2022-11-06T13:46:50.131Z,20.9
2022-11-06T13:48:50.371Z,21.0
2022-11-06T13:50:50.260Z,21.1
2022-11-06T13:53:20.227Z,20.9
2022-11-06T13:55:20.996Z,20.9
2022-11-06T13:57:20.349Z,20.9
2022-11-06T13:59:23.830Z,21.2
2022-11-06T14:01:20.432Z,21.1
2022-11-06T14:03:20.269Z,20.6
2022-11-06T14:05:20.197Z,20.8
2022-11-06T14:07:20.346Z,21.0
2022-11-06T14:09:20.184Z,20.9
2022-11-06T14:11:20.534Z,20.8
2022-11-06T14:13:20.335Z,20.5
2022-11-06T14:15:20.209Z,20.5
2022-11-06T14:17:20.321Z,20.4
2022-11-06T14:19:20.360Z,20.5
2022-11-06T14:21:20.232Z,20.4
2022-11-06T14:23:20.315Z,20.5
2022-11-06T14:25:20.248Z,20.4
2022-11-06T14:27:20.257Z,20.6
2022-11-06T14:29:20.257Z,20.8
2022-11-06T14:31:26.200Z,20.8
2022-11-06T14:33:20.297Z,20.9
2022-11-06T14:35:20.364Z,20.8
2022-11-06T14:37:20.497Z,20.6
2022-11-06T14:39:20.163Z,20.8
2022-11-06T14:41:20.289Z,20.9
2022-11-06T14:43:20.180Z,20.8
2022-11-06T14:45:20.184Z,20.7
2022-11-06T14:47:20.326Z,20.8
2022-11-06T14:49:20.231Z,20.3
2022-11-06T14:51:20.230Z,20.1
2022-11-06T14:53:20.263Z,20.1
2022-11-06T14:55:20.151Z,20.2
2022-11-06T14:57:20.155Z,20.3
2022-11-06T14:59:20.217Z,20.4
2022-11-06T15:01:20.372Z,20.6
2022-11-06T15:03:20.242Z,20.7
2022-11-06T15:05:20.231Z,20.6
2022-11-06T15:07:20.163Z,20.4
2022-11-06T15:09:20.139Z,20.4
2022-11-06T15:13:20.305Z,20.6
2022-11-06T15:15:20.230Z,20.8
2022-11-06T15:17:20.219Z,20.8
2022-11-06T15:19:20.255Z,20.5
2022-11-06T15:21:20.269Z,20.5
2022-11-06T15:23:20.266Z,20.6
2022-11-06T15:25:20.190Z,20.7
2022-11-06T15:27:20.235Z,20.5
2022-11-06T15:29:20.229Z,20.5
2022-11-06T15:31:20.335Z,20.3
2022-11-06T15:33:20.342Z,20.2
2022-11-06T15:35:20.535Z,20.5
2022-11-06T15:37:20.259Z,20.4
2022-11-06T15:39:20.199Z,20.2
2022-11-06T15:41:20.280Z,20.3
2022-11-06T15:43:20.205Z,20.3
2022-11-06T15:45:51.275Z,20.5
2022-11-06T15:47:50.244Z,20.2
2022-11-06T15:49:50.272Z,20.6
2022-11-06T15:51:50.319Z,20.5
2022-11-06T15:53:50.320Z,20.6
2022-11-06T15:55:50.322Z,20.4
2022-11-06T15:57:50.402Z,20.2
2022-11-06T15:59:50.276Z,20.1
2022-11-06T16:01:50.302Z,20.2
2022-11-06T16:03:50.263Z,20.4
2022-11-06T16:05:50.257Z,20.4
2022-11-06T16:07:50.280Z,20.4
2022-11-06T16:09:50.216Z,20.3
2022-11-06T16:11:50.207Z,20.2
2022-11-06T16:13:50.219Z,20.1
2022-11-06T16:15:50.213Z,20.1
2022-11-06T16:17:50.195Z,20.1
2022-11-06T16:19:50.225Z,19.9
2022-11-06T16:21:50.229Z,20.0
2022-11-06T16:23:50.205Z,19.9
2022-11-06T16:25:50.340Z,19.9
2022-11-06T16:27:50.192Z,19.9
2022-11-06T16:29:50.181Z,19.8
2022-11-06T16:31:50.210Z,20.1
2022-11-06T16:33:50.252Z,20.3
2022-11-06T16:35:55.117Z,20.3
2022-11-06T16:37:50.249Z,20.5
2022-11-06T16:39:50.702Z,20.4
2022-11-06T16:41:50.221Z,20.6
2022-11-06T16:43:50.199Z,20.8
2022-11-06T16:45:50.246Z,20.9
2022-11-06T16:47:50.186Z,20.6
2022-11-06T16:49:53.533Z,20.5
2022-11-06T16:51:50.277Z,20.8
2022-11-06T16:53:50.257Z,20.6
2022-11-06T16:55:50.229Z,20.6
2022-11-06T16:57:50.378Z,20.9
2022-11-06T16:59:50.275Z,21.1
2022-11-06T17:01:50.389Z,21.0
2022-11-06T17:03:50.220Z,20.8
2022-11-06T17:05:50.322Z,20.8
2022-11-06T17:07:50.259Z,20.7
2022-11-06T17:09:50.201Z,20.8
2022-11-06T17:11:50.254Z,21.0
2022-11-06T17:13:50.216Z,20.9
2022-11-06T17:15:50.274Z,21.0
2022-11-06T17:17:50.279Z,21.0
2022-11-06T17:19:50.249Z,21.1
2022-11-06T17:21:50.291Z,21.1
2022-11-06T17:23:50.218Z,21.1
2022-11-06T17:25:50.220Z,21.0
2022-11-06T17:27:50.250Z,21.2
2022-11-06T17:29:50.230Z,21.1
2022-11-06T17:31:50.259Z,21.0
2022-11-06T17:33:50.237Z,20.9
2022-11-06T17:36:20.308Z,20.8
2022-11-06T17:38:20.259Z,21.0
2022-11-06T17:40:20.223Z,21.0
2022-11-06T17:42:20.372Z,20.6
2022-11-06T17:44:20.235Z,20.4
2022-11-06T17:46:20.238Z,20.6
2022-11-06T17:48:20.291Z,20.8
2022-11-06T17:50:20.318Z,20.6
2022-11-06T17:52:20.352Z,20.8
2022-11-06T17:54:20.342Z,21.0
2022-11-06T17:56:20.406Z,20.8
2022-11-06T17:58:20.441Z,20.7
2022-11-06T18:00:20.328Z,20.4
2022-11-06T18:02:40.683Z,20.5
2022-11-06T18:04:20.340Z,20.6
2022-11-06T18:06:20.343Z,20.6
2022-11-06T18:08:20.377Z,20.9
2022-11-06T18:10:20.376Z,21.1
2022-11-06T18:12:20.360Z,21.0
2022-11-06T18:14:20.291Z,21.1
2022-11-06T18:16:20.297Z,21.1
2022-11-06T18:18:20.328Z,21.0
2022-11-06T18:20:20.381Z,21.0
2022-11-06T18:22:20.347Z,20.9
2022-11-06T18:24:20.343Z,20.8
2022-11-06T18:26:20.401Z,21.0
2022-11-06T18:28:20.484Z,21.0
2022-11-06T18:30:20.331Z,21.1
2022-11-06T18:32:20.295Z,20.9
2022-11-06T18:34:20.856Z,20.7
2022-11-06T18:36:20.256Z,20.7
2022-11-06T18:38:20.364Z,20.7
2022-11-06T18:40:20.279Z,20.8
2022-11-06T18:42:20.377Z,20.9
2022-11-06T18:44:21.372Z,21.0
2022-11-06T18:46:20.371Z,20.8
2022-11-06T18:48:21.876Z,20.8
2022-11-06T18:50:20.332Z,21.1
2022-11-06T18:52:44.332Z,21.2
2022-11-06T18:54:20.409Z,21.1
2022-11-06T18:56:20.363Z,21.5
2022-11-06T18:58:20.427Z,21.6
2022-11-06T19:00:20.289Z,21.6
2022-11-06T19:02:20.436Z,21.9
2022-11-06T19:04:20.425Z,21.4
2022-11-06T19:06:20.347Z,21.6
2022-11-06T19:08:20.355Z,21.4
2022-11-06T19:10:20.465Z,21.1
2022-11-06T19:12:20.437Z,21.0
2022-11-06T19:14:20.453Z,21.0
2022-11-06T19:16:20.336Z,21.2
2022-11-06T19:18:20.375Z,21.2
2022-11-06T19:20:20.347Z,21.1
2022-11-06T19:22:20.350Z,21.3
2022-11-06T19:24:20.381Z,21.3
2022-11-06T19:26:50.317Z,21.0
2022-11-06T19:28:50.431Z,21.0
2022-11-06T19:30:50.439Z,21.2
2022-11-06T19:32:50.358Z,21.3
2022-11-06T19:34:50.338Z,21.5
2022-11-06T19:36:50.390Z,21.5
2022-11-06T19:38:50.415Z,21.3
2022-11-06T19:40:50.449Z,21.2
2022-11-06T19:42:50.416Z,21.2
2022-11-06T19:44:50.328Z,21.1
2022-11-06T19:46:50.337Z,21.2
2022-11-06T19:48:50.388Z,21.3
2022-11-06T19:50:59.637Z,21.1
2022-11-06T19:52:53.386Z,21.0
2022-11-06T19:54:50.416Z,20.9
2022-11-06T19:57:29.313Z,20.5
2022-11-06T19:58:50.412Z,20.3
2022-11-06T20:00:50.434Z,20.4
2022-11-06T20:02:50.513Z,20.4
2022-11-06T20:04:50.383Z,20.5
2022-11-06T20:06:50.389Z,20.6
2022-11-06T20:08:50.402Z,20.7
2022-11-06T20:10:50.404Z,20.7
2022-11-06T20:12:50.442Z,20.7
2022-11-06T20:14:50.493Z,20.8
2022-11-06T20:16:51.703Z,20.7
2022-11-06T20:18:50.409Z,20.9
2022-11-06T20:20:50.398Z,20.9
2022-11-06T20:22:50.416Z,20.6
2022-11-06T20:24:50.469Z,20.6
2022-11-06T20:26:50.488Z,20.8
2022-11-06T20:29:00.880Z,20.5
2022-11-06T20:31:00.952Z,20.6
2022-11-06T20:33:00.946Z,20.8
2022-11-06T20:35:00.973Z,20.8
2022-11-06T20:37:00.947Z,20.9
2022-11-06T20:39:00.958Z,20.8
2022-11-06T20:41:00.884Z,21.1
2022-11-06T20:43:00.977Z,20.9
2022-11-06T20:45:00.899Z,20.9
2022-11-06T20:47:00.941Z,20.6
2022-11-06T20:49:00.934Z,20.6
2022-11-06T20:51:00.937Z,20.6
2022-11-06T20:53:00.963Z,20.5
2022-11-06T20:55:00.961Z,20.6
2022-11-06T20:57:00.940Z,20.9
2022-11-06T20:59:01.001Z,20.6
2022-11-06T21:01:00.971Z,20.7
2022-11-06T21:03:02.080Z,20.6
2022-11-06T21:05:00.962Z,20.5
2022-11-06T21:07:00.966Z,20.2
2022-11-06T21:09:01.011Z,20.3
2022-11-06T21:11:06.019Z,20.2
2022-11-06T21:13:01.049Z,20.1
2022-11-06T21:15:00.928Z,20.2
2022-11-06T21:17:00.981Z,19.9
2022-11-06T21:19:00.937Z,20.1
2022-11-06T21:21:00.999Z,20.2
2022-11-06T21:23:01.000Z,20.3
2022-11-06T21:25:01.004Z,20.3
2022-11-06T21:27:00.938Z,20.3
2022-11-06T21:29:00.945Z,20.5
2022-11-06T21:31:00.993Z,20.6
2022-11-06T21:33:00.964Z,20.3
2022-11-06T21:35:01.177Z,20.1
2022-11-06T21:37:02.957Z,19.9
2022-11-06T21:39:01.052Z,20.2
2022-11-06T21:41:01.009Z,19.8
2022-11-06T21:43:01.012Z,20.2
2022-11-06T21:45:00.931Z,20.1
2022-11-06T21:47:00.955Z,20.4
2022-11-06T21:49:00.970Z,20.4
2022-11-06T21:51:01.309Z,20.4
2022-11-06T21:53:01.012Z,20.5
2022-11-06T21:55:00.978Z,20.3
2022-11-06T21:57:00.964Z,20.3
2022-11-06T21:59:30.907Z,20.4
2022-11-06T22:01:31.067Z,20.5
2022-11-06T22:03:31.025Z,20.6
2022-11-06T22:05:30.993Z,20.4
2022-11-06T22:07:31.013Z,20.8
2022-11-06T22:09:31.057Z,20.8
2022-11-06T22:11:31.140Z,20.6
2022-11-06T22:13:31.044Z,20.5
2022-11-06T22:15:30.956Z,20.7
2022-11-06T22:17:31.005Z,20.7
2022-11-06T22:19:31.000Z,20.6
2022-11-06T22:21:31.020Z,20.5
2022-11-06T22:23:30.986Z,20.5
2022-11-06T22:25:30.904Z,20.4
2022-11-06T22:27:30.912Z,20.3
2022-11-06T22:29:31.056Z,20.0
2022-11-06T22:31:30.991Z,19.9
2022-11-06T22:33:30.986Z,19.6
2022-11-06T22:35:30.924Z,19.8
2022-11-06T22:37:30.921Z,19.7
2022-11-06T22:39:31.052Z,19.5
2022-11-06T22:41:30.929Z,19.7
2022-11-06T22:43:30.942Z,19.4
2022-11-06T22:45:30.963Z,19.5
2022-11-06T22:47:31.008Z,19.5
2022-11-06T22:49:31.023Z,19.6
2022-11-06T22:51:30.985Z,19.5
2022-11-06T22:53:31.027Z,19.8
2022-11-06T22:55:30.972Z,19.7
2022-11-06T22:57:31.061Z,19.6
2022-11-06T22:59:31.057Z,19.8
2022-11-06T23:01:31.125Z,19.6
2022-11-06T23:03:31.040Z,19.5
2022-11-06T23:05:30.954Z,19.1
2022-11-06T23:07:30.949Z,19.1
2022-11-06T23:09:31.036Z,19.1
2022-11-06T23:11:31.073Z,19.5
2022-11-06T23:13:30.964Z,19.6
2022-11-06T23:15:30.956Z,19.6
2022-11-06T23:17:30.981Z,19.5
2022-11-06T23:19:31.002Z,19.9
2022-11-06T23:21:30.967Z,20.2
2022-11-06T23:23:30.989Z,19.8
2022-11-06T23:25:31.052Z,19.8
2022-11-06T23:27:30.951Z,19.8
2022-11-06T23:29:30.947Z,20.3
2022-11-06T23:31:31.042Z,20.3
2022-11-06T23:33:30.956Z,20.5
2022-11-06T23:35:32.636Z,20.2
2022-11-06T23:37:31.040Z,20.5
2022-11-06T23:39:30.968Z,20.5
2022-11-06T23:41:30.979Z,20.7
2022-11-06T23:43:30.984Z,21.0
2022-11-06T23:45:30.991Z,21.0
2022-11-06T23:47:30.981Z,20.6
2022-11-06T23:49:30.960Z,20.7
2022-11-06T23:52:01.039Z,20.5
2022-11-06T23:54:01.066Z,20.5
2022-11-06T23:56:00.986Z,20.6
2022-11-06T23:58:01.099Z,20.7
